createdAt,value
2019-02-14T00:00:07.963Z,2.20
2019-02-14T00:01:07.489Z,2.10
2019-02-14T00:02:05.442Z,2.10
2019-02-14T00:03:05.110Z,2.10
2019-02-14T00:04:05.188Z,2.00
2019-02-14T00:05:05.350Z,2.00
2019-02-14T00:06:05.460Z,2.00
2019-02-14T00:07:05.607Z,1.90
2019-02-14T00:08:07.819Z,1.90
2019-02-14T00:09:04.889Z,1.90
2019-02-14T00:10:04.921Z,1.90
2019-02-14T00:11:05.070Z,1.80
2019-02-14T00:12:07.894Z,1.80
2019-02-14T00:13:04.903Z,1.80
2019-02-14T00:14:05.058Z,1.80
2019-02-14T00:15:07.770Z,1.70
2019-02-14T00:16:04.811Z,1.70
2019-02-14T00:17:04.927Z,1.80
2019-02-14T00:18:05.068Z,1.70
2019-02-14T00:19:05.333Z,1.70
2019-02-14T00:20:05.551Z,1.70
2019-02-14T00:21:05.694Z,1.70
2019-02-14T00:22:04.799Z,1.70
2019-02-14T00:23:04.965Z,1.70
2019-02-14T00:24:05.107Z,1.70
2019-02-14T00:25:05.209Z,1.70
2019-02-14T00:26:05.402Z,1.70
2019-02-14T00:27:05.589Z,1.70
2019-02-14T00:28:04.876Z,1.70
2019-02-14T00:29:07.552Z,1.60
2019-02-14T00:30:05.613Z,1.60
2019-02-14T00:31:07.379Z,1.60
2019-02-14T00:32:07.907Z,1.60
2019-02-14T00:33:04.933Z,1.50
2019-02-14T00:34:07.721Z,1.50
2019-02-14T00:35:07.338Z,1.50
2019-02-14T00:36:05.429Z,1.50
2019-02-14T00:37:08.078Z,1.40
2019-02-14T00:38:07.539Z,1.40
2019-02-14T00:39:05.514Z,1.40
2019-02-14T00:40:08.167Z,1.40
2019-02-14T00:41:05.200Z,1.40
2019-02-14T00:42:08.055Z,1.40
2019-02-14T00:43:04.953Z,1.40
2019-02-14T00:44:05.181Z,1.40
2019-02-14T00:45:05.306Z,1.40
2019-02-14T00:46:05.558Z,1.40
2019-02-14T00:47:07.465Z,1.30
2019-02-14T00:48:08.234Z,1.40
2019-02-14T00:49:05.172Z,1.30
2019-02-14T00:50:05.296Z,1.30
2019-02-14T00:51:10.438Z,1.30
2019-02-14T00:52:05.439Z,1.30
2019-02-14T00:53:05.458Z,1.30
2019-02-14T00:54:05.569Z,1.30
2019-02-14T00:55:04.677Z,1.30
2019-02-14T00:56:04.937Z,1.30
2019-02-14T00:57:05.069Z,1.30
2019-02-14T00:58:07.732Z,1.30
2019-02-14T00:59:04.819Z,1.20
2019-02-14T01:00:06.008Z,1.30
2019-02-14T01:01:05.205Z,1.20
2019-02-14T01:02:05.349Z,1.20
2019-02-14T01:03:05.429Z,1.20
2019-02-14T01:04:05.643Z,1.20
2019-02-14T01:05:04.899Z,1.20
2019-02-14T01:06:07.722Z,1.20
2019-02-14T01:07:09.877Z,1.20
2019-02-14T01:08:04.852Z,1.20
2019-02-14T01:09:07.535Z,1.10
2019-02-14T01:10:05.622Z,1.10
2019-02-14T01:11:04.920Z,1.10
2019-02-14T01:12:05.119Z,1.10
2019-02-14T01:13:05.270Z,1.10
2019-02-14T01:14:05.544Z,1.10
2019-02-14T01:15:04.666Z,1.10
2019-02-14T01:16:07.367Z,1.10
2019-02-14T01:17:07.898Z,1.10
2019-02-14T01:18:04.956Z,1.10
2019-02-14T01:19:05.104Z,1.10
2019-02-14T01:20:07.768Z,1.10
2019-02-14T01:21:04.778Z,1.10
2019-02-14T01:22:07.443Z,1.10
2019-02-14T01:23:05.396Z,1.10
2019-02-14T01:24:05.570Z,1.10
2019-02-14T01:25:04.666Z,1.00
2019-02-14T01:26:04.820Z,1.00
2019-02-14T01:27:07.599Z,1.00
2019-02-14T01:28:05.706Z,1.00
2019-02-14T01:29:05.218Z,1.00
2019-02-14T01:30:04.747Z,1.00
2019-02-14T01:31:04.847Z,1.00
2019-02-14T01:32:04.910Z,1.00
2019-02-14T01:33:05.032Z,1.00
2019-02-14T01:34:05.183Z,0.90
2019-02-14T01:35:05.453Z,0.90
2019-02-14T01:36:05.697Z,0.90
2019-02-14T01:37:04.814Z,0.90
2019-02-14T01:38:04.994Z,0.90
2019-02-14T01:39:07.742Z,0.90
2019-02-14T01:40:04.808Z,0.90
2019-02-14T01:41:04.873Z,0.90
2019-02-14T01:42:04.981Z,0.90
2019-02-14T01:43:05.062Z,0.80
2019-02-14T01:44:05.159Z,0.80
2019-02-14T01:45:05.282Z,0.80
2019-02-14T01:46:05.392Z,0.80
2019-02-14T01:47:08.069Z,0.80
2019-02-14T01:48:07.722Z,0.80
2019-02-14T01:49:04.733Z,0.80
2019-02-14T01:50:04.929Z,0.80
2019-02-14T01:51:05.010Z,0.80
2019-02-14T01:52:07.615Z,0.80
2019-02-14T01:53:05.563Z,0.80
2019-02-14T01:54:04.691Z,0.80
2019-02-14T01:55:04.852Z,0.80
2019-02-14T01:56:05.109Z,0.80
2019-02-14T01:57:05.158Z,0.80
2019-02-14T01:58:05.454Z,0.80
2019-02-14T01:59:05.596Z,0.80
2019-02-14T02:00:04.727Z,0.80
2019-02-14T02:01:04.827Z,0.80
2019-02-14T02:02:04.944Z,0.80
2019-02-14T02:03:05.018Z,0.70
2019-02-14T02:04:05.184Z,0.70
2019-02-14T02:05:05.275Z,0.70
2019-02-14T02:06:07.883Z,0.70
2019-02-14T02:07:04.824Z,0.70
2019-02-14T02:08:04.931Z,0.70
2019-02-14T02:09:05.015Z,0.70
2019-02-14T02:10:05.173Z,0.60
2019-02-14T02:11:05.257Z,0.60
2019-02-14T02:12:07.833Z,0.60
2019-02-14T02:13:04.772Z,0.60
2019-02-14T02:14:07.528Z,0.60
2019-02-14T02:15:05.519Z,0.60
2019-02-14T02:16:04.693Z,0.60
2019-02-14T02:17:04.838Z,0.60
2019-02-14T02:18:05.052Z,0.50
2019-02-14T02:19:05.279Z,0.60
2019-02-14T02:20:07.899Z,0.50
2019-02-14T02:21:04.846Z,0.50
2019-02-14T02:22:05.014Z,0.50
2019-02-14T02:23:07.694Z,0.50
2019-02-14T02:24:05.649Z,0.50
2019-02-14T02:25:07.381Z,0.50
2019-02-14T02:26:05.428Z,0.50
2019-02-14T02:27:05.483Z,0.50
2019-02-14T02:28:05.672Z,0.50
2019-02-14T02:29:04.806Z,0.50
2019-02-14T02:30:05.267Z,0.50
2019-02-14T02:31:05.348Z,0.50
2019-02-14T02:32:05.483Z,0.50
2019-02-14T02:33:05.652Z,0.50
2019-02-14T02:34:04.789Z,0.50
2019-02-14T02:35:07.401Z,0.50
2019-02-14T02:36:07.887Z,0.50
2019-02-14T02:37:04.958Z,0.50
2019-02-14T02:38:05.061Z,0.50
2019-02-14T02:39:05.234Z,0.50
2019-02-14T02:40:07.829Z,0.50
2019-02-14T02:41:04.838Z,0.50
2019-02-14T02:42:07.560Z,0.50
2019-02-14T02:43:08.243Z,0.50
2019-02-14T02:44:05.332Z,0.50
2019-02-14T02:45:08.100Z,0.50
2019-02-14T02:46:07.731Z,0.50
2019-02-14T02:47:04.751Z,0.50
2019-02-14T02:48:05.050Z,0.50
2019-02-14T02:49:07.746Z,0.50
2019-02-14T02:50:04.671Z,0.50
2019-02-14T02:51:04.782Z,0.50
2019-02-14T02:52:04.953Z,0.50
2019-02-14T02:53:05.162Z,0.50
2019-02-14T02:54:05.299Z,0.40
2019-02-14T02:55:05.397Z,0.40
2019-02-14T02:56:08.136Z,0.40
2019-02-14T02:57:07.765Z,0.40
2019-02-14T02:58:04.785Z,0.40
2019-02-14T02:59:05.339Z,0.40
2019-02-14T03:00:05.610Z,0.40
2019-02-14T03:01:04.858Z,0.30
2019-02-14T03:02:05.045Z,0.40
2019-02-14T03:03:05.119Z,0.30
2019-02-14T03:04:05.249Z,0.30
2019-02-14T03:05:05.698Z,0.30
2019-02-14T03:06:10.375Z,0.30
2019-02-14T03:07:05.004Z,0.30
2019-02-14T03:08:05.103Z,0.30
2019-02-14T03:09:05.202Z,0.30
2019-02-14T03:10:07.885Z,0.30
2019-02-14T03:11:04.841Z,0.20
2019-02-14T03:12:04.940Z,0.20
2019-02-14T03:13:05.159Z,0.20
2019-02-14T03:14:05.303Z,0.20
2019-02-14T03:15:05.515Z,0.20
2019-02-14T03:16:04.672Z,0.20
2019-02-14T03:17:04.975Z,0.20
2019-02-14T03:18:07.660Z,0.10
2019-02-14T03:19:04.693Z,0.20
2019-02-14T03:20:04.945Z,0.10
2019-02-14T03:21:05.078Z,0.10
2019-02-14T03:22:05.176Z,0.10
2019-02-14T03:23:05.290Z,0.10
2019-02-14T03:24:05.426Z,0.10
2019-02-14T03:25:05.517Z,0.10
2019-02-14T03:26:07.174Z,0.10
2019-02-14T03:27:05.146Z,0.10
2019-02-14T03:28:05.312Z,0.10
2019-02-14T03:29:05.589Z,0.10
2019-02-14T03:30:04.731Z,0.10
2019-02-14T03:31:04.973Z,0.10
2019-02-14T03:32:05.174Z,0.00
2019-02-14T03:33:04.803Z,0.00
2019-02-14T03:34:04.936Z,0.00
2019-02-14T03:35:05.573Z,0.00
2019-02-14T03:36:07.688Z,0.00
2019-02-14T03:37:07.385Z,-0.10
2019-02-14T03:38:05.439Z,-0.10
2019-02-14T03:39:05.602Z,-0.10
2019-02-14T03:40:04.758Z,0.00
2019-02-14T03:41:04.851Z,0.00
2019-02-14T03:42:05.004Z,0.00
2019-02-14T03:43:05.116Z,-0.10
2019-02-14T03:44:05.272Z,-0.10
2019-02-14T03:45:05.612Z,-0.10
2019-02-14T03:46:07.251Z,-0.10
2019-02-14T03:47:07.921Z,-0.10
2019-02-14T03:48:07.486Z,-0.10
2019-02-14T03:49:08.020Z,-0.10
2019-02-14T03:50:05.095Z,-0.10
2019-02-14T03:51:05.399Z,-0.20
2019-02-14T03:52:08.074Z,-0.20
2019-02-14T03:53:04.998Z,-0.20
2019-02-14T03:54:05.437Z,-0.20
2019-02-14T03:55:05.612Z,-0.20
2019-02-14T03:56:07.230Z,-0.20
2019-02-14T03:57:07.838Z,-0.20
2019-02-14T03:58:07.510Z,-0.20
2019-02-14T03:59:05.545Z,-0.20
2019-02-14T04:00:05.684Z,-0.20
2019-02-14T04:01:04.844Z,-0.20
2019-02-14T04:02:05.102Z,-0.20
2019-02-14T04:03:05.341Z,-0.20
2019-02-14T04:04:08.135Z,-0.20
2019-02-14T04:05:07.648Z,-0.20
2019-02-14T04:06:05.819Z,-0.20
2019-02-14T04:07:05.118Z,-0.20
2019-02-14T04:08:05.266Z,-0.20
2019-02-14T04:09:05.377Z,-0.20
2019-02-14T04:10:05.522Z,-0.20
2019-02-14T04:11:05.606Z,-0.20
2019-02-14T04:12:09.737Z,-0.30
2019-02-14T04:13:04.662Z,-0.20
2019-02-14T04:14:05.183Z,-0.20
2019-02-14T04:15:05.357Z,-0.30
2019-02-14T04:16:07.998Z,-0.30
2019-02-14T04:17:07.653Z,-0.30
2019-02-14T04:18:09.776Z,-0.30
2019-02-14T04:19:04.762Z,-0.40
2019-02-14T04:20:04.996Z,-0.30
2019-02-14T04:21:05.061Z,-0.40
2019-02-14T04:22:10.295Z,-0.40
2019-02-14T04:23:07.805Z,-0.40
2019-02-14T04:24:07.261Z,-0.40
2019-02-14T04:25:07.779Z,-0.40
2019-02-14T04:26:07.319Z,-0.40
2019-02-14T04:27:05.276Z,-0.40
2019-02-14T04:28:07.868Z,-0.40
2019-02-14T04:29:07.478Z,-0.40
2019-02-14T04:30:08.282Z,-0.40
2019-02-14T04:31:05.374Z,-0.40
2019-02-14T04:32:05.531Z,-0.40
2019-02-14T04:33:05.675Z,-0.40
2019-02-14T04:34:04.791Z,-0.40
2019-02-14T04:35:04.892Z,-0.40
2019-02-14T04:36:05.150Z,-0.40
2019-02-14T04:37:05.374Z,-0.50
2019-02-14T04:38:05.549Z,-0.50
2019-02-14T04:39:05.637Z,-0.50
2019-02-14T04:40:05.383Z,-0.50
2019-02-14T04:41:05.469Z,-0.50
2019-02-14T04:42:05.651Z,-0.50
2019-02-14T04:43:07.328Z,-0.50
2019-02-14T04:44:05.477Z,-0.50
2019-02-14T04:45:05.668Z,-0.50
2019-02-14T04:46:07.277Z,-0.50
2019-02-14T04:47:05.249Z,-0.50
2019-02-14T04:48:05.554Z,-0.50
2019-02-14T04:49:04.704Z,-0.60
2019-02-14T04:50:07.433Z,-0.50
2019-02-14T04:51:05.523Z,-0.60
2019-02-14T04:52:04.648Z,-0.50
2019-02-14T04:53:04.870Z,-0.50
2019-02-14T04:54:04.941Z,-0.50
2019-02-14T04:55:05.006Z,-0.50
2019-02-14T04:56:07.692Z,-0.50
2019-02-14T04:57:04.695Z,-0.50
2019-02-14T04:58:05.041Z,-0.50
2019-02-14T04:59:05.405Z,-0.50
2019-02-14T05:00:05.581Z,-0.50
2019-02-14T05:01:05.256Z,-0.50
2019-02-14T05:02:05.552Z,-0.60
2019-02-14T05:03:07.372Z,-0.60
2019-02-14T05:04:05.572Z,-0.60
2019-02-14T05:05:07.275Z,-0.60
2019-02-14T05:06:07.870Z,-0.60
2019-02-14T05:07:04.905Z,-0.60
2019-02-14T05:08:05.043Z,-0.50
2019-02-14T05:09:05.312Z,-0.50
2019-02-14T05:10:07.903Z,-0.50
2019-02-14T05:11:04.902Z,-0.50
2019-02-14T05:12:05.058Z,-0.50
2019-02-14T05:13:07.724Z,-0.40
2019-02-14T05:14:04.687Z,-0.50
2019-02-14T05:15:07.338Z,-0.40
2019-02-14T05:16:05.480Z,-0.50
2019-02-14T05:17:07.306Z,-0.40
2019-02-14T05:18:07.757Z,-0.40
2019-02-14T05:19:04.712Z,-0.40
2019-02-14T05:20:04.864Z,-0.40
2019-02-14T05:21:05.007Z,-0.40
2019-02-14T05:22:07.756Z,-0.40
2019-02-14T05:23:04.849Z,-0.40
2019-02-14T05:24:07.481Z,-0.40
2019-02-14T05:25:08.466Z,-0.40
2019-02-14T05:26:08.030Z,-0.50
2019-02-14T05:27:07.534Z,-0.50
2019-02-14T05:28:05.634Z,-0.50
2019-02-14T05:29:07.374Z,-0.50
2019-02-14T05:30:08.005Z,-0.40
2019-02-14T05:31:07.628Z,-0.50
2019-02-14T05:32:07.296Z,-0.50
2019-02-14T05:33:07.897Z,-0.50
2019-02-14T05:34:04.810Z,-0.50
2019-02-14T05:35:04.919Z,-0.50
2019-02-14T05:36:05.046Z,-0.50
2019-02-14T05:37:05.162Z,-0.50
2019-02-14T05:38:05.288Z,-0.50
2019-02-14T05:39:05.451Z,-0.50
2019-02-14T05:40:05.684Z,-0.50
2019-02-14T05:41:04.860Z,-0.50
2019-02-14T05:42:07.520Z,-0.50
2019-02-14T05:43:07.989Z,-0.50
2019-02-14T05:44:05.131Z,-0.50
2019-02-14T05:45:07.982Z,-0.50
2019-02-14T05:46:04.989Z,-0.50
2019-02-14T05:47:05.024Z,-0.40
2019-02-14T05:48:07.755Z,-0.40
2019-02-14T05:49:07.298Z,-0.40
2019-02-14T05:50:05.377Z,-0.40
2019-02-14T05:51:07.998Z,-0.40
2019-02-14T05:52:07.613Z,-0.40
2019-02-14T05:53:04.914Z,-0.40
2019-02-14T05:54:07.759Z,-0.40
2019-02-14T05:55:04.925Z,-0.40
2019-02-14T05:56:07.750Z,-0.40
2019-02-14T05:57:04.737Z,-0.40
2019-02-14T05:58:07.385Z,-0.30
2019-02-14T05:59:05.344Z,-0.30
2019-02-14T06:00:05.483Z,-0.30
2019-02-14T06:01:08.264Z,-0.30
2019-02-14T06:02:05.228Z,-0.40
2019-02-14T06:03:07.851Z,-0.40
2019-02-14T06:04:04.826Z,-0.30
2019-02-14T06:05:10.178Z,-0.40
2019-02-14T06:06:05.325Z,-0.40
2019-02-14T06:07:05.518Z,-0.40
2019-02-14T06:08:04.695Z,-0.40
2019-02-14T06:09:05.507Z,-0.40
2019-02-14T06:10:05.624Z,-0.40
2019-02-14T06:11:04.729Z,-0.30
2019-02-14T06:12:07.519Z,-0.30
2019-02-14T06:13:10.563Z,-0.30
2019-02-14T06:14:05.587Z,-0.30
2019-02-14T06:15:07.241Z,-0.30
2019-02-14T06:16:05.218Z,-0.30
2019-02-14T06:17:07.572Z,-0.30
2019-02-14T06:18:08.187Z,-0.30
2019-02-14T06:19:07.705Z,-0.30
2019-02-14T06:20:07.204Z,-0.30
2019-02-14T06:21:05.214Z,-0.30
2019-02-14T06:22:05.482Z,-0.30
2019-02-14T06:23:05.799Z,-0.30
2019-02-14T06:24:05.076Z,-0.30
2019-02-14T06:25:05.230Z,-0.30
2019-02-14T06:26:08.007Z,-0.20
2019-02-14T06:27:05.062Z,-0.30
2019-02-14T06:28:07.791Z,-0.30
2019-02-14T06:29:04.805Z,-0.30
2019-02-14T06:30:05.344Z,-0.20
2019-02-14T06:31:08.123Z,-0.30
2019-02-14T06:32:07.657Z,-0.30
2019-02-14T06:33:07.245Z,-0.30
2019-02-14T06:34:05.292Z,-0.30
2019-02-14T06:35:05.410Z,-0.30
2019-02-14T06:36:08.018Z,-0.30
2019-02-14T06:37:09.575Z,-0.20
2019-02-14T06:38:05.309Z,-0.20
2019-02-14T06:39:05.566Z,-0.30
2019-02-14T06:40:04.753Z,-0.20
2019-02-14T06:41:04.989Z,-0.20
2019-02-14T06:42:05.273Z,-0.20
2019-02-14T06:43:05.411Z,-0.20
2019-02-14T06:44:05.558Z,-0.20
2019-02-14T06:45:07.260Z,-0.20
2019-02-14T06:46:07.791Z,-0.20
2019-02-14T06:47:04.838Z,-0.20
2019-02-14T06:48:05.102Z,-0.20
2019-02-14T06:49:05.230Z,-0.20
2019-02-14T06:50:09.973Z,-0.20
2019-02-14T06:51:07.498Z,-0.20
2019-02-14T06:52:10.596Z,-0.20
2019-02-14T06:53:08.175Z,-0.20
2019-02-14T06:54:05.170Z,-0.20
2019-02-14T06:55:08.250Z,-0.20
2019-02-14T06:56:05.303Z,-0.20
2019-02-14T06:57:05.690Z,-0.20
2019-02-14T06:58:04.932Z,-0.20
2019-02-14T06:59:05.020Z,-0.20
2019-02-14T07:00:05.388Z,-0.10
2019-02-14T07:01:05.750Z,-0.20
2019-02-14T07:02:07.592Z,-0.10
2019-02-14T07:03:08.198Z,-0.20
2019-02-14T07:04:07.736Z,-0.10
2019-02-14T07:05:04.868Z,-0.10
2019-02-14T07:06:10.074Z,-0.10
2019-02-14T07:07:05.099Z,-0.10
2019-02-14T07:08:05.272Z,-0.10
2019-02-14T07:09:05.414Z,-0.10
2019-02-14T07:10:08.073Z,0.00
2019-02-14T07:11:05.141Z,-0.10
2019-02-14T07:12:05.397Z,-0.10
2019-02-14T07:13:05.546Z,-0.10
2019-02-14T07:14:04.701Z,-0.10
2019-02-14T07:15:04.830Z,-0.10
2019-02-14T07:16:07.509Z,0.00
2019-02-14T07:17:05.445Z,0.00
2019-02-14T07:18:05.733Z,0.00
2019-02-14T07:19:04.974Z,0.00
2019-02-14T07:20:05.098Z,0.00
2019-02-14T07:21:05.195Z,0.00
2019-02-14T07:22:05.412Z,0.00
2019-02-14T07:23:05.660Z,0.00
2019-02-14T07:24:04.798Z,0.10
2019-02-14T07:25:04.946Z,0.10
2019-02-14T07:26:05.119Z,0.10
2019-02-14T07:27:05.473Z,0.10
2019-02-14T07:28:04.659Z,0.10
2019-02-14T07:29:04.796Z,0.20
2019-02-14T07:30:05.092Z,0.20
2019-02-14T07:31:05.340Z,0.20
2019-02-14T07:32:08.123Z,0.20
2019-02-14T07:33:07.768Z,0.30
2019-02-14T07:34:04.843Z,0.20
2019-02-14T07:35:10.080Z,0.30
2019-02-14T07:36:07.578Z,0.30
2019-02-14T07:37:05.639Z,0.30
2019-02-14T07:38:04.917Z,0.30
2019-02-14T07:39:05.133Z,0.30
2019-02-14T07:40:05.301Z,0.30
2019-02-14T07:41:05.360Z,0.40
2019-02-14T07:42:07.525Z,0.40
2019-02-14T07:43:05.663Z,0.40
2019-02-14T07:44:04.891Z,0.40
2019-02-14T07:45:05.386Z,0.40
2019-02-14T07:46:05.636Z,0.40
2019-02-14T07:47:04.835Z,0.40
2019-02-14T07:48:07.629Z,0.40
2019-02-14T07:49:07.381Z,0.40
2019-02-14T07:50:07.960Z,0.40
2019-02-14T07:51:04.949Z,0.40
2019-02-14T07:52:05.124Z,0.40
2019-02-14T07:53:05.250Z,0.40
2019-02-14T07:54:08.053Z,0.40
2019-02-14T07:55:07.745Z,0.40
2019-02-14T07:56:07.388Z,0.50
2019-02-14T07:57:05.374Z,0.40
2019-02-14T07:58:05.570Z,0.40
2019-02-14T07:59:07.285Z,0.50
2019-02-14T08:00:07.879Z,0.50
2019-02-14T08:01:04.931Z,0.40
2019-02-14T08:02:05.169Z,0.50
2019-02-14T08:03:05.328Z,0.50
2019-02-14T08:04:05.401Z,0.50
2019-02-14T08:05:08.263Z,0.50
2019-02-14T08:06:12.989Z,0.50
2019-02-14T08:07:05.082Z,0.50
2019-02-14T08:08:05.301Z,0.50
2019-02-14T08:09:05.587Z,0.50
2019-02-14T08:10:04.756Z,0.50
2019-02-14T08:11:05.030Z,0.50
2019-02-14T08:12:05.139Z,0.60
2019-02-14T08:13:05.394Z,0.60
2019-02-14T08:14:05.721Z,0.50
2019-02-14T08:15:04.887Z,0.50
2019-02-14T08:16:05.020Z,0.50
2019-02-14T08:17:05.220Z,0.50
2019-02-14T08:18:05.356Z,0.60
2019-02-14T08:19:08.066Z,0.60
2019-02-14T08:20:07.565Z,0.70
2019-02-14T08:21:08.120Z,0.60
2019-02-14T08:22:07.834Z,0.70
2019-02-14T08:23:04.869Z,0.70
2019-02-14T08:24:05.024Z,0.70
2019-02-14T08:25:05.134Z,0.70
2019-02-14T08:26:10.731Z,0.80
2019-02-14T08:27:05.255Z,0.80
2019-02-14T08:28:05.421Z,0.80
2019-02-14T08:29:05.521Z,0.80
2019-02-14T08:30:04.703Z,0.90
2019-02-14T08:31:07.545Z,1.00
2019-02-14T08:32:05.729Z,0.90
2019-02-14T08:33:04.894Z,1.00
2019-02-14T08:34:05.025Z,1.00
2019-02-14T08:35:06.475Z,1.00
2019-02-14T08:36:07.485Z,1.10
2019-02-14T08:37:05.512Z,1.10
2019-02-14T08:38:04.812Z,1.10
2019-02-14T08:39:05.002Z,1.20
2019-02-14T08:40:05.162Z,1.20
2019-02-14T08:41:07.973Z,1.30
2019-02-14T08:42:05.024Z,1.30
2019-02-14T08:43:07.666Z,1.40
2019-02-14T08:44:08.326Z,1.40
2019-02-14T08:45:10.535Z,1.50
2019-02-14T08:46:08.199Z,1.50
2019-02-14T08:47:05.356Z,1.50
2019-02-14T08:48:05.535Z,1.60
2019-02-14T08:49:07.293Z,1.60
2019-02-14T08:50:05.426Z,1.60
2019-02-14T08:51:05.580Z,1.70
2019-02-14T08:52:09.785Z,1.70
2019-02-14T08:53:07.472Z,1.80
2019-02-14T08:54:05.460Z,1.80
2019-02-14T08:55:05.599Z,1.80
2019-02-14T08:56:09.805Z,1.90
2019-02-14T08:57:04.917Z,1.90
2019-02-14T08:58:05.100Z,1.90
2019-02-14T08:59:07.906Z,2.00
2019-02-14T09:00:04.883Z,2.00
2019-02-14T09:01:05.036Z,2.00
2019-02-14T09:02:07.686Z,2.00
2019-02-14T09:03:04.821Z,2.00
2019-02-14T09:04:05.062Z,2.00
2019-02-14T09:05:05.268Z,2.10
2019-02-14T09:06:05.442Z,2.10
2019-02-14T09:07:05.596Z,2.10
2019-02-14T09:08:04.754Z,2.10
2019-02-14T09:09:09.941Z,2.10
2019-02-14T09:10:07.416Z,2.10
2019-02-14T09:11:05.527Z,2.10
2019-02-14T09:12:05.742Z,2.10
2019-02-14T09:13:07.575Z,2.20
2019-02-14T09:14:04.898Z,2.20
2019-02-14T09:15:05.092Z,2.20
2019-02-14T09:16:05.319Z,2.20
2019-02-14T09:17:05.624Z,2.20
2019-02-14T09:18:07.867Z,2.30
2019-02-14T09:19:07.591Z,2.30
2019-02-14T09:20:05.622Z,2.30
2019-02-14T09:21:04.774Z,2.30
2019-02-14T09:22:07.581Z,2.40
2019-02-14T09:23:08.209Z,2.40
2019-02-14T09:24:05.226Z,2.40
2019-02-14T09:25:05.463Z,2.40
2019-02-14T09:26:05.557Z,2.40
2019-02-14T09:27:07.212Z,2.50
2019-02-14T09:28:05.301Z,2.50
2019-02-14T09:29:05.612Z,2.50
2019-02-14T09:30:07.563Z,2.60
2019-02-14T09:31:08.153Z,2.70
2019-02-14T09:32:05.345Z,2.60
2019-02-14T09:33:10.600Z,2.80
2019-02-14T09:34:08.158Z,2.90
2019-02-14T09:35:07.754Z,2.90
2019-02-14T09:36:04.733Z,2.90
2019-02-14T09:37:04.851Z,3.00
2019-02-14T09:38:12.615Z,3.20
2019-02-14T09:39:08.184Z,3.20
2019-02-14T09:40:05.213Z,3.20
2019-02-14T09:41:05.392Z,3.20
2019-02-14T09:42:05.722Z,3.30
2019-02-14T09:43:05.053Z,3.40
2019-02-14T09:44:05.416Z,3.40
2019-02-14T09:45:05.712Z,3.50
2019-02-14T09:46:04.964Z,3.50
2019-02-14T09:47:07.903Z,3.60
2019-02-14T09:48:04.846Z,3.60
2019-02-14T09:49:05.044Z,3.70
2019-02-14T09:50:07.881Z,3.70
2019-02-14T09:51:05.001Z,3.70
2019-02-14T09:52:07.694Z,3.90
2019-02-14T09:53:04.727Z,3.90
2019-02-14T09:54:04.917Z,4.00
2019-02-14T09:55:07.762Z,4.10
2019-02-14T09:56:09.831Z,4.20
2019-02-14T09:57:04.944Z,4.20
2019-02-14T09:58:07.637Z,4.30
2019-02-14T09:59:08.173Z,4.30
2019-02-14T10:00:07.803Z,4.40
2019-02-14T10:01:04.916Z,4.40
2019-02-14T10:02:07.649Z,4.50
2019-02-14T10:03:09.786Z,4.50
2019-02-14T10:04:07.342Z,4.60
2019-02-14T10:05:05.398Z,4.60
2019-02-14T10:06:05.781Z,4.70
2019-02-14T10:07:05.154Z,4.70
2019-02-14T10:08:12.341Z,4.80
2019-02-14T10:09:05.345Z,4.80
2019-02-14T10:10:08.047Z,4.90
2019-02-14T10:11:07.607Z,4.90
2019-02-14T10:12:08.293Z,5.00
2019-02-14T10:13:05.271Z,5.00
2019-02-14T10:14:07.931Z,5.10
2019-02-14T10:15:04.913Z,5.10
2019-02-14T10:16:05.065Z,5.10
2019-02-14T10:17:07.899Z,5.20
2019-02-14T10:18:07.434Z,5.20
2019-02-14T10:19:08.098Z,5.30
2019-02-14T10:20:05.116Z,5.30
2019-02-14T10:21:05.190Z,5.30
2019-02-14T10:22:05.315Z,5.40
2019-02-14T10:23:05.430Z,5.40
2019-02-14T10:24:05.798Z,5.50
2019-02-14T10:25:04.998Z,5.50
2019-02-14T10:26:07.708Z,5.60
2019-02-14T10:27:07.349Z,5.60
2019-02-14T10:28:05.439Z,5.60
2019-02-14T10:29:05.634Z,5.70
2019-02-14T10:30:05.364Z,5.70
2019-02-14T10:31:05.481Z,5.70
2019-02-14T10:32:05.630Z,5.80
2019-02-14T10:33:07.315Z,5.80
2019-02-14T10:34:05.281Z,5.90
2019-02-14T10:35:05.506Z,5.90
2019-02-14T10:36:04.757Z,5.90
2019-02-14T10:37:07.548Z,6.00
2019-02-14T10:38:05.731Z,6.00
2019-02-14T10:39:04.965Z,6.00
2019-02-14T10:40:07.770Z,6.10
2019-02-14T10:41:10.085Z,6.10
2019-02-14T10:42:05.086Z,6.10
2019-02-14T10:43:05.288Z,6.20
2019-02-14T10:44:05.451Z,6.30
2019-02-14T10:45:08.173Z,6.30
2019-02-14T10:46:05.130Z,6.30
2019-02-14T10:47:05.234Z,6.30
2019-02-14T10:48:07.869Z,6.30
2019-02-14T10:49:04.869Z,6.40
2019-02-14T10:50:05.267Z,6.40
2019-02-14T10:51:05.450Z,6.40
2019-02-14T10:52:05.636Z,6.50
2019-02-14T10:53:04.765Z,6.50
2019-02-14T10:54:05.015Z,6.50
2019-02-14T10:55:07.695Z,6.50
2019-02-14T10:56:04.765Z,6.60
2019-02-14T10:57:05.004Z,6.60
2019-02-14T10:58:07.660Z,6.60
2019-02-14T10:59:07.223Z,6.70
2019-02-14T11:00:05.260Z,6.70
2019-02-14T11:01:07.920Z,6.80
2019-02-14T11:02:05.012Z,6.80
2019-02-14T11:03:05.235Z,6.80
2019-02-14T11:04:05.533Z,6.80
2019-02-14T11:05:09.902Z,6.90
2019-02-14T11:06:05.061Z,6.90
2019-02-14T11:07:05.271Z,7.00
2019-02-14T11:08:05.475Z,7.00
2019-02-14T11:09:05.682Z,7.00
2019-02-14T11:10:07.481Z,7.10
2019-02-14T11:11:08.211Z,7.10
2019-02-14T11:12:05.319Z,7.10
2019-02-14T11:13:05.665Z,7.10
2019-02-14T11:14:07.365Z,7.20
2019-02-14T11:15:05.436Z,7.20
2019-02-14T11:16:05.519Z,7.20
2019-02-14T11:17:07.217Z,7.30
2019-02-14T11:18:07.860Z,7.40
2019-02-14T11:19:09.915Z,7.40
2019-02-14T11:20:04.965Z,7.40
2019-02-14T11:21:05.122Z,7.40
2019-02-14T11:22:05.250Z,7.50
2019-02-14T11:23:05.422Z,7.50
2019-02-14T11:24:05.533Z,7.60
2019-02-14T11:25:07.172Z,7.60
2019-02-14T11:26:05.260Z,7.60
2019-02-14T11:27:05.334Z,7.60
2019-02-14T11:28:10.658Z,7.70
2019-02-14T11:29:07.323Z,7.70
2019-02-14T11:30:05.463Z,7.70
2019-02-14T11:31:08.148Z,7.70
2019-02-14T11:32:05.158Z,7.80
2019-02-14T11:33:05.300Z,7.80
2019-02-14T11:34:05.400Z,7.90
2019-02-14T11:35:08.139Z,7.90
2019-02-14T11:36:05.134Z,7.90
2019-02-14T11:37:05.353Z,8.00
2019-02-14T11:38:05.495Z,7.90
2019-02-14T11:39:04.736Z,8.00
2019-02-14T11:40:07.367Z,8.10
2019-02-14T11:41:05.414Z,8.00
2019-02-14T11:42:05.483Z,8.10
2019-02-14T11:43:05.705Z,8.10
2019-02-14T11:44:04.854Z,8.20
2019-02-14T11:45:04.908Z,8.20
2019-02-14T11:46:05.072Z,8.20
2019-02-14T11:47:05.238Z,8.30
2019-02-14T11:48:04.775Z,8.30
2019-02-14T11:49:07.582Z,8.30
2019-02-14T11:50:08.145Z,8.40
2019-02-14T11:51:05.136Z,8.40
2019-02-14T11:52:05.181Z,8.40
2019-02-14T11:53:13.769Z,8.40
2019-02-14T11:54:07.969Z,8.50
2019-02-14T11:55:04.927Z,8.40
2019-02-14T11:56:07.649Z,8.50
2019-02-14T11:57:10.123Z,8.50
2019-02-14T11:58:07.717Z,8.50
2019-02-14T11:59:04.642Z,8.50
2019-02-14T12:00:04.761Z,8.60
2019-02-14T12:01:04.870Z,8.60
2019-02-14T12:02:04.921Z,8.60
2019-02-14T12:03:05.115Z,8.60
2019-02-14T12:04:07.917Z,8.60
2019-02-14T12:05:04.921Z,8.60
2019-02-14T12:06:05.011Z,8.60
2019-02-14T12:07:07.572Z,8.70
2019-02-14T12:08:05.549Z,8.70
2019-02-14T12:09:05.722Z,8.80
2019-02-14T12:10:13.140Z,8.80
2019-02-14T12:11:04.859Z,8.80
2019-02-14T12:12:07.657Z,8.80
2019-02-14T12:13:04.740Z,8.90
2019-02-14T12:14:04.845Z,8.90
2019-02-14T12:15:04.927Z,8.90
2019-02-14T12:16:05.040Z,8.90
2019-02-14T12:17:04.765Z,9.00
2019-02-14T12:18:05.367Z,9.00
2019-02-14T12:19:05.576Z,9.00
2019-02-14T12:20:12.334Z,9.10
2019-02-14T12:21:05.671Z,9.10
2019-02-14T12:22:04.843Z,9.10
2019-02-14T12:23:05.007Z,9.20
2019-02-14T12:24:05.085Z,9.20
2019-02-14T12:25:05.191Z,9.20
2019-02-14T12:26:05.840Z,9.20
2019-02-14T12:27:05.086Z,9.30
2019-02-14T12:28:10.451Z,9.30
2019-02-14T12:29:05.653Z,9.30
2019-02-14T12:30:09.967Z,9.30
2019-02-14T12:31:05.007Z,9.30
2019-02-14T12:32:05.201Z,9.40
2019-02-14T12:33:05.401Z,9.40
2019-02-14T12:34:05.455Z,9.40
2019-02-14T12:35:05.600Z,9.50
2019-02-14T12:36:07.238Z,9.50
2019-02-14T12:37:05.218Z,9.50
2019-02-14T12:38:07.875Z,9.50
2019-02-14T12:39:09.027Z,9.50
2019-02-14T12:40:05.509Z,9.50
2019-02-14T12:41:05.685Z,9.60
2019-02-14T12:42:07.370Z,9.60
2019-02-14T12:43:07.859Z,9.60
2019-02-14T12:44:04.874Z,9.60
2019-02-14T12:45:04.970Z,9.60
2019-02-14T12:46:05.272Z,9.70
2019-02-14T12:47:05.487Z,9.70
2019-02-14T12:48:07.312Z,9.70
2019-02-14T12:49:07.827Z,9.70
2019-02-14T12:50:07.346Z,9.70
2019-02-14T12:51:12.986Z,9.80
2019-02-14T12:52:05.036Z,9.80
2019-02-14T12:53:05.170Z,9.80
2019-02-14T12:54:07.855Z,9.90
2019-02-14T12:55:04.816Z,9.80
2019-02-14T12:56:10.531Z,9.90
2019-02-14T12:57:08.147Z,10.00
2019-02-14T12:58:07.701Z,10.00
2019-02-14T12:59:05.642Z,10.00
2019-02-14T13:00:04.850Z,10.00
2019-02-14T13:01:05.206Z,10.00
2019-02-14T13:02:07.824Z,10.00
2019-02-14T13:03:07.484Z,10.00
2019-02-14T13:04:05.550Z,10.00
2019-02-14T13:05:07.304Z,10.00
2019-02-14T13:06:05.247Z,10.00
2019-02-14T13:07:05.355Z,10.10
2019-02-14T13:08:05.504Z,10.10
2019-02-14T13:09:08.108Z,10.10
2019-02-14T13:10:05.563Z,10.10